Belvedere, South Carolina
Current Conditions -  °F | °C
As of 2:53 AM on Sunday 26 Oct 2014 (Local Time) from KDNL Reporting Station
Clear Clear  
Wind Chill: 61°   Ceiling: Unl
Heat Index: 61°   Visibility: 10mi
Dew Point: 50°   Wind: 5mph
Humidity: 67%   Direction: 290°WNW
Pressure: 29.94"   Gusts: NA
Location:  33.5092°N, 81.9331°W
Report Text: KDNL 260653Z AUTO 29004KT 10SM CLR 16/10 A2994 RMK AO2 SLP135 T01610100 $
Loading
Personal Weather Stations






























Interactive Weather Map
Tropical Storm Tracking
New forecast layout! Learn more

10-Day Weather Forecast

Advertisements
Track Severe Weather on mobile